CheckWX is a tool to help pilots better visualize weather data.  It is not intended as a substitute for an official pre-flight weather briefing.

09:17:19 UTC

KASN TAF
Talladega Municipal Airport
Talladega, Alabama, USA
KASN 180520Z 1806/1906 08006KT P6SM OVC008 FM180700 14008KT 6SM SHRA OVC008 FM181100 07006KT 4SM SHRA OVC004 FM181700 20006KT 6SM SHRA OVC006 PROB30 1817/1821 4SM -TSRA BKN012CB OVC030 FM182200 22006KT 6SM SHRA OVC014 PROB30 1822/1824 4SM -TSRA SCT012 OVC028CB

Feb-18@
06:00 UTC

Feb-18 @ 06:00 UTC

Feb-18@
07:00 UTC

Feb-18 @ 07:00 UTC

KASN 180520Z 1806/1906 08006KT P6SM OVC008

Expired

Wind
  • 080° at 6 KTS
Cloud Levels
  • Overcast at 800' AGL

Feb-18@
07:00 UTC

Feb-18 @ 07:00 UTC

Feb-18@
11:00 UTC

Feb-18 @ 11:00 UTC

FM180700 14008KT 6SM SHRA OVC008

From

From Standard forecast or significant change

Wind
  • 140° at 8 KTS
Conditions
Rain
Cloud Levels
  • Overcast at 800' AGL

Feb-18@
11:00 UTC

Feb-18 @ 11:00 UTC

Feb-18@
17:00 UTC

Feb-18 @ 17:00 UTC

FM181100 07006KT 4SM SHRA OVC004

From

From Standard forecast or significant change

Wind
  • 070° at 6 KTS
Conditions
Rain
Cloud Levels
  • Overcast at 400' AGL

Feb-18@
17:00 UTC

Feb-18 @ 17:00 UTC

Feb-18@
21:00 UTC

Feb-18 @ 21:00 UTC

PROB30 1817/1821 4SM -TSRA BKN012CB OVC030

Probable - 30% Likelihood

Probable - 30% Likelihood during this time.

Conditions
Light Thunderstorm, Light Rain
Cloud Levels
  • Broken at 1,200' AGL
  • Overcast at 3,000' AGL

Feb-18@
17:00 UTC

Feb-18 @ 17:00 UTC

Feb-18@
22:00 UTC

Feb-18 @ 22:00 UTC

FM181700 20006KT 6SM SHRA OVC006

From

From Standard forecast or significant change

Wind
  • 200° at 6 KTS
Conditions
Rain
Cloud Levels
  • Overcast at 600' AGL

Feb-18@
22:00 UTC

Feb-18 @ 22:00 UTC

Feb-19@
00:00 UTC

Feb-19 @ 00:00 UTC

PROB30 1822/1824 4SM -TSRA SCT012 OVC028CB

Probable - 30% Likelihood

Probable - 30% Likelihood during this time.

Conditions
Light Thunderstorm, Light Rain
Cloud Levels
  • Scattered at 1,200' AGL
  • Overcast at 2,800' AGL

Feb-18@
22:00 UTC

Feb-18 @ 22:00 UTC

Feb-19@
06:00 UTC

Feb-19 @ 06:00 UTC

FM182200 22006KT 6SM SHRA OVC014

From

From Standard forecast or significant change

Wind
  • 220° at 6 KTS
Conditions
Rain
Cloud Levels
  • Overcast at 1,400' AGL